To NAV CANADA Home Page Login to a new session Search on AWWS site Disclaimer Vers la page française équivalente Tips FAQ What's new on the site To the Forecasts and Observations / NOTAM section To "File a Flight Plan" website Publications and other links Update of the User's profile FIC Telephone Numbers My Weather Data Folder Route Weather Data Regional Weather Data Local Weather Data To the Forecasts and Observations / NOTAM section
Request Generated 10/21/2018 at 05:51:09 UTC . Weather information available at that time is displayed.

METAR/TAF

INUKJUAK/QC    (show WxCam)

METAR CYPH 210500Z AUTO 03012KT 9SM CLR M09/M11 A2988 RMK SLP122=
METAR CYPH 210400Z AUTO 03014KT 9SM CLR M08/M10 A2987 RMK SLP118=
SPECI CYPH 210322Z AUTO 03015KT 9SM BKN040 M07/M09 A2986 RMK SLP117=
METAR CYPH 210300Z AUTO 03014KT 9SM -SN BKN048 M07/M09 A2986 RMK SLP116=

TAF CYPH 210538Z 2106/2118 03012KT P6SM SKC
BECMG 2108/2110 03007KT
FM211400 08007KT P6SM SKC
RMK FCST BASED ON AUTO OBS. NXT FCST BY 211200Z=
Your time UTC time
Weather data provided by Environment Canada and NAV CANADA